Time;durP1;ratioP1;P1;durP2;ratioP2;P2;SDS_P1;SDS_P2;PMS_P1;PMS_P2;Temp;Humidity;BMP_temperature;BMP_pressure;BME280_temperature;BME280_humidity;BME280_pressure;Samples;Min_cycle;Max_cycle;Signal;HPM_P1;HPM_P2
2022/01/14 00:01:55;;;;;;;21.88;10.25;;;-2.80;99.90;;;;;;5111048;28;20195;-75
2022/01/14 00:04:22;;;;;;;21.60;9.60;;;-2.80;99.90;;;;;;5129478;28;20158;-75
2022/01/14 00:06:48;;;;;;;21.90;10.20;;;-2.80;99.90;;;;;;5129716;28;20151;-75
2022/01/14 00:09:15;;;;;;;17.17;9.18;;;-2.80;99.90;;;;;;5129334;28;20201;-75
2022/01/14 00:11:50;;;;;;;16.63;9.45;;;-2.80;99.90;;;;;;5129359;28;20189;-75
2022/01/14 00:16:47;;;;;;;16.30;8.43;;;-2.90;99.90;;;;;;5133574;28;20522;-76
2022/01/14 00:19:13;;;;;;;17.92;9.32;;;-2.90;99.90;;;;;;5114788;28;20181;-76
2022/01/14 00:21:41;;;;;;;17.45;10.00;;;-3.00;99.90;;;;;;5133030;28;20186;-76
2022/01/14 00:24:12;;;;;;;22.05;9.52;;;-2.90;99.90;;;;;;5133356;28;20151;-75
2022/01/14 00:34:48;;;;;;;21.35;9.48;;;-3.00;99.90;;;;;;5133072;28;20166;-75
2022/01/14 00:37:16;;;;;;;16.30;8.52;;;-3.00;99.90;;;;;;5132977;28;20167;-76
2022/01/14 00:39:43;;;;;;;19.35;9.43;;;-3.10;99.90;;;;;;5115929;27;20273;-76
2022/01/14 00:42:10;;;;;;;19.70;10.32;;;-3.00;99.90;;;;;;5134850;27;20214;-75
2022/01/14 00:44:37;;;;;;;13.95;9.25;;;-2.90;99.90;;;;;;5153390;27;20151;-75
2022/01/14 00:47:04;;;;;;;19.17;10.68;;;-2.90;99.90;;;;;;5153339;27;20153;-75
2022/01/14 00:49:31;;;;;;;16.88;9.98;;;-2.90;99.90;;;;;;5134781;27;20214;-76
2022/01/14 00:51:57;;;;;;;15.30;9.32;;;-3.00;99.90;;;;;;5134657;27;20312;-76
2022/01/14 00:54:25;;;;;;;24.95;9.40;;;-3.00;99.90;;;;;;5153237;27;20151;-76
2022/01/14 00:57:14;;;;;;;20.65;9.82;;;-3.00;99.90;;;;;;5153341;27;20150;-75
2022/01/14 00:59:39;;;;;;;12.15;8.95;;;-3.00;99.90;;;;;;5152936;27;20237;-75
2022/01/14 01:02:05;;;;;;;27.88;9.77;;;-2.90;99.90;;;;;;5134639;27;20205;-75
2022/01/14 01:04:36;;;;;;;19.42;9.98;;;-2.90;99.90;;;;;;5153056;27;20212;-75
2022/01/14 01:07:04;;;;;;;20.73;10.45;;;-2.90;99.90;;;;;;5152776;27;20169;-75
2022/01/14 01:09:31;;;;;;;16.40;9.43;;;-2.90;99.90;;;;;;5134269;27;20288;-75
2022/01/14 01:12:10;;;;;;;19.33;10.27;;;-2.90;99.90;;;;;;5134354;27;20221;-76
2022/01/14 01:14:56;;;;;;;21.60;11.15;;;-2.90;99.90;;;;;;5152905;27;20157;-76
2022/01/14 01:17:22;;;;;;;24.38;10.07;;;-2.90;99.90;;;;;;5134255;27;20225;-76
2022/01/14 01:19:48;;;;;;;15.35;9.55;;;-2.90;99.90;;;;;;5152649;27;20158;-75
2022/01/14 01:22:14;;;;;;;15.55;8.50;;;-2.90;99.90;;;;;;5149762;27;20201;-76
2022/01/14 01:24:39;;;;;;;16.60;9.18;;;-2.90;99.90;;;;;;5133207;27;20172;-76
2022/01/14 01:27:08;;;;;;;17.58;9.52;;;-2.90;99.90;;;;;;5152618;27;20161;-75
2022/01/14 01:32:03;;;;;;;15.32;8.52;;;-3.00;99.90;;;;;;5152563;27;20236;-74
2022/01/14 01:34:29;;;;;;;19.25;9.23;;;-3.00;99.90;;;;;;5152300;27;20323;-74
2022/01/14 01:36:57;;;;;;;15.18;9.18;;;-3.00;99.90;;;;;;5133875;27;20170;-74
2022/01/14 01:39:28;;;;;;;19.20;8.45;;;-3.00;99.90;;;;;;5129523;27;20168;-75
2022/01/14 01:41:57;;;;;;;21.92;9.45;;;-3.10;99.90;;;;;;5094190;28;20195;-75
2022/01/14 01:44:24;;;;;;;19.00;10.90;;;-3.10;99.90;;;;;;5131635;28;20151;-75
2022/01/14 01:46:52;;;;;;;17.52;9.07;;;-3.20;99.90;;;;;;5131561;28;20178;-75
2022/01/14 01:49:22;;;;;;;18.17;9.18;;;-3.20;99.90;;;;;;5131252;28;20183;-75
2022/01/14 01:51:49;;;;;;;14.43;9.60;;;-3.10;99.90;;;;;;5131528;28;20604;-74
2022/01/14 01:54:16;;;;;;;20.80;8.82;;;-3.00;99.90;;;;;;5112993;28;20167;-75
2022/01/14 01:56:42;;;;;;;17.77;9.55;;;-3.00;99.90;;;;;;5112924;28;20170;-76
2022/01/14 01:59:09;;;;;;;21.60;10.55;;;-3.00;99.90;;;;;;5112854;28;20227;-75
2022/01/14 02:01:39;;;;;;;18.55;8.80;;;-3.10;99.90;;;;;;5112799;28;20631;-75
2022/01/14 02:04:05;;;;;;;17.92;9.25;;;-3.20;99.90;;;;;;5131159;28;20155;-75
2022/01/14 02:06:32;;;;;;;23.98;9.30;;;-3.20;99.90;;;;;;5131312;28;20242;-76
2022/01/14 02:08:58;;;;;;;19.85;8.60;;;-3.10;99.90;;;;;;5130954;28;20194;-75
2022/01/14 02:11:24;;;;;;;15.18;8.48;;;-3.00;99.90;;;;;;5131037;28;20197;-76
2022/01/14 02:13:53;;;;;;;24.73;8.70;;;-3.10;99.90;;;;;;5112652;28;20159;-75
2022/01/14 02:27:12;;;;;;;22.85;11.10;;;-3.00;99.90;;;;;;5087822;28;20191;-75
2022/01/14 02:29:39;;;;;;;18.92;10.45;;;-3.10;99.90;;;;;;5088035;28;20203;-75
2022/01/14 02:32:05;;;;;;;17.85;9.48;;;-3.10;99.90;;;;;;5087631;28;20297;-75
2022/01/14 02:34:32;;;;;;;23.98;11.57;;;-3.10;99.90;;;;;;5087921;28;20172;-75
2022/01/14 02:36:58;;;;;;;22.15;11.55;;;-3.00;99.90;;;;;;5070735;28;20230;-75
2022/01/14 02:39:24;;;;;;;22.65;10.23;;;-3.00;99.90;;;;;;5057780;28;20188;-75
2022/01/14 02:41:51;;;;;;;21.45;9.80;;;-3.00;99.90;;;;;;5087477;28;20200;-75
2022/01/14 02:44:25;;;;;;;23.38;12.23;;;-3.10;99.90;;;;;;5087624;28;20194;-75
2022/01/14 02:46:55;;;;;;;19.73;9.38;;;-3.20;99.90;;;;;;5087669;28;20179;-74
2022/01/14 02:49:28;;;;;;;23.83;9.88;;;-3.20;99.90;;;;;;5087606;28;20741;-75
2022/01/14 02:51:55;;;;;;;22.95;11.55;;;-3.20;99.90;;;;;;5070537;28;20708;-76
2022/01/14 02:54:23;;;;;;;26.15;11.98;;;-3.30;99.90;;;;;;5070829;28;20166;-76
2022/01/14 02:56:53;;;;;;;30.92;11.38;;;-3.20;99.90;;;;;;5087781;28;20223;-75
2022/01/14 02:59:20;;;;;;;29.27;11.50;;;-3.30;99.90;;;;;;5108935;28;20218;-75
2022/01/14 03:01:48;;;;;;;25.92;12.15;;;-3.30;99.90;;;;;;5111522;28;20194;-76
2022/01/14 03:04:16;;;;;;;30.23;12.00;;;-3.30;99.90;;;;;;5111674;28;20173;-76
2022/01/14 03:06:43;;;;;;;30.10;13.43;;;-3.30;99.90;;;;;;5111672;28;20629;-76
2022/01/14 03:09:09;;;;;;;27.83;14.30;;;-3.40;99.90;;;;;;5111737;28;20194;-75
2022/01/14 03:11:48;;;;;;;24.88;11.55;;;-3.40;99.90;;;;;;5111562;28;20293;-75
2022/01/14 03:14:22;;;;;;;28.25;14.35;;;-3.30;99.90;;;;;;5129999;28;20151;-76
2022/01/14 03:16:49;;;;;;;28.77;12.60;;;-3.40;99.90;;;;;;5129926;28;20162;-76
2022/01/14 03:19:20;;;;;;;27.67;12.93;;;-3.40;99.90;;;;;;5111605;28;20606;-75
2022/01/14 03:21:50;;;;;;;35.88;12.43;;;-3.40;99.90;;;;;;5129620;28;20191;-75
2022/01/14 03:26:50;;;;;;;26.20;12.80;;;-3.40;99.90;;;;;;5129891;28;20155;-75
2022/01/14 03:29:18;;;;;;;29.50;12.95;;;-3.40;99.90;;;;;;5111266;28;20534;-75
2022/01/14 03:31:45;;;;;;;24.40;12.10;;;-3.40;99.90;;;;;;5129690;28;20193;-75
2022/01/14 03:34:12;;;;;;;20.35;12.13;;;-3.40;99.90;;;;;;5111420;28;20162;-75
2022/01/14 03:36:39;;;;;;;32.75;12.38;;;-3.40;99.90;;;;;;5129761;28;20158;-75
2022/01/14 03:39:05;;;;;;;20.38;10.45;;;-3.40;99.90;;;;;;5129637;28;20166;-75
2022/01/14 03:41:32;;;;;;;30.38;12.70;;;-3.40;99.90;;;;;;5111209;28;20195;-75
2022/01/14 03:43:58;;;;;;;21.52;10.82;;;-3.50;99.90;;;;;;5129551;28;20226;-75
2022/01/14 03:46:24;;;;;;;23.45;11.35;;;-3.50;99.90;;;;;;5111229;28;20527;-75
2022/01/14 03:48:52;;;;;;;21.30;11.65;;;-3.50;99.90;;;;;;5114103;28;20200;-75
2022/01/14 03:51:20;;;;;;;24.05;11.32;;;-3.50;99.90;;;;;;5133619;28;20202;-74
2022/01/14 03:53:47;;;;;;;13.55;9.60;;;-3.60;99.90;;;;;;5133618;28;20163;-74
2022/01/14 03:56:15;;;;;;;19.90;9.20;;;-3.50;99.90;;;;;;5133507;28;20170;-74
2022/01/14 03:58:41;;;;;;;21.77;10.77;;;-3.50;99.90;;;;;;5133370;28;20150;-74
2022/01/14 04:01:09;;;;;;;24.75;8.95;;;-3.40;99.90;;;;;;5133442;28;20225;-76
2022/01/14 04:03:35;;;;;;;22.60;10.50;;;-3.40;99.90;;;;;;5133530;28;20163;-75
2022/01/14 04:06:03;;;;;;;15.95;8.55;;;-3.40;99.90;;;;;;5133528;28;20159;-75
2022/01/14 04:08:29;;;;;;;12.07;8.50;;;-3.40;99.90;;;;;;5133222;28;20158;-75
2022/01/14 04:10:57;;;;;;;15.55;9.43;;;-3.30;99.90;;;;;;5133227;28;20186;-75
2022/01/14 04:13:36;;;;;;;19.83;10.25;;;-3.20;99.90;;;;;;5133286;28;20565;-75
2022/01/14 04:16:03;;;;;;;26.38;9.85;;;-3.10;99.90;;;;;;5133256;28;20159;-75
2022/01/14 04:18:29;;;;;;;21.50;9.55;;;-3.20;99.90;;;;;;5133176;28;20161;-75
2022/01/14 04:20:55;;;;;;;19.52;9.85;;;-3.30;99.90;;;;;;5133124;28;20246;-75
2022/01/14 04:23:25;;;;;;;17.08;8.23;;;-3.30;99.90;;;;;;5133125;28;20637;-74
2022/01/14 04:25:53;;;;;;;14.93;9.18;;;-3.20;99.90;;;;;;5133087;28;20155;-74
2022/01/14 04:28:24;;;;;;;13.77;7.63;;;-3.30;99.90;;;;;;5132845;28;20171;-74
2022/01/14 04:30:54;;;;;;;14.38;8.45;;;-3.30;99.90;;;;;;5132948;28;20191;-75
2022/01/14 04:33:25;;;;;;;14.18;8.50;;;-3.40;99.90;;;;;;5133034;28;20147;-74
2022/01/14 04:35:52;;;;;;;21.58;9.45;;;-3.30;99.90;;;;;;5114519;28;20252;-75
2022/01/14 04:38:17;;;;;;;19.63;8.40;;;-3.30;99.90;;;;;;5114597;28;20169;-75
2022/01/14 04:40:44;;;;;;;13.73;8.18;;;-3.30;99.90;;;;;;5114073;28;20258;-75
2022/01/14 04:43:12;;;;;;;13.40;7.40;;;-3.40;99.90;;;;;;5114171;28;20177;-74
2022/01/14 04:48:07;;;;;;;13.27;7.75;;;-3.40;99.90;;;;;;5132726;28;20162;-74
2022/01/14 04:50:34;;;;;;;12.02;7.95;;;-3.40;99.90;;;;;;5132415;28;20207;-76
2022/01/14 04:53:00;;;;;;;13.80;6.65;;;-3.30;99.90;;;;;;5132488;28;20178;-76
2022/01/14 04:55:27;;;;;;;12.70;7.00;;;-3.30;99.90;;;;;;5132417;28;20179;-74
2022/01/14 04:57:55;;;;;;;16.88;8.18;;;-3.30;99.90;;;;;;5132221;28;20170;-75
2022/01/14 05:00:24;;;;;;;15.70;8.35;;;-3.40;99.90;;;;;;5125406;28;20234;-75
2022/01/14 05:02:52;;;;;;;14.65;7.43;;;-3.40;99.90;;;;;;5132197;28;20181;-75
2022/01/14 05:05:21;;;;;;;11.75;6.60;;;-3.50;99.90;;;;;;5132267;28;20569;-73
2022/01/14 05:07:49;;;;;;;12.32;6.47;;;-3.50;99.90;;;;;;5132332;28;20183;-73
2022/01/14 05:12:44;;;;;;;16.25;6.20;;;-3.40;99.90;;;;;;5132003;28;20155;-75
2022/01/14 05:15:13;;;;;;;9.35;7.32;;;-3.30;99.90;;;;;;5132000;28;20179;-74
2022/01/14 05:17:39;;;;;;;15.27;7.90;;;-3.40;99.90;;;;;;5113476;28;20159;-75
2022/01/14 05:20:06;;;;;;;10.63;7.95;;;-3.30;99.90;;;;;;5113461;28;20192;-74
2022/01/14 05:22:32;;;;;;;11.48;7.07;;;-3.20;99.90;;;;;;5131775;28;20171;-75
2022/01/14 05:24:58;;;;;;;14.77;7.63;;;-3.20;99.90;;;;;;5131852;28;20163;-75
2022/01/14 05:27:24;;;;;;;16.05;8.95;;;-3.00;99.90;;;;;;5113497;28;20239;-75
2022/01/14 05:29:50;;;;;;;13.98;8.63;;;-3.00;99.90;;;;;;5113211;28;20186;-75
2022/01/14 05:32:17;;;;;;;15.13;9.40;;;-3.00;99.90;;;;;;5131693;28;20202;-74
2022/01/14 05:34:44;;;;;;;12.20;9.15;;;-3.00;99.90;;;;;;5131637;28;20151;-75
2022/01/14 05:37:11;;;;;;;15.93;8.10;;;-2.90;99.90;;;;;;5131779;28;20178;-75
2022/01/14 05:39:38;;;;;;;16.98;6.93;;;-3.00;99.90;;;;;;5131327;28;20151;-75
2022/01/14 05:42:05;;;;;;;11.98;8.23;;;-3.00;99.90;;;;;;5134626;27;20188;-74
2022/01/14 05:44:32;;;;;;;14.23;7.15;;;-3.10;99.90;;;;;;5110405;28;20697;-73
2022/01/14 05:47:02;;;;;;;13.65;8.20;;;-3.00;99.90;;;;;;5119685;27;20170;-74
2022/01/14 05:49:28;;;;;;;19.60;7.57;;;-3.00;99.90;;;;;;5152003;27;20185;-74
2022/01/14 05:51:55;;;;;;;17.15;7.78;;;-3.00;99.90;;;;;;5133032;27;20678;-74
2022/01/14 05:54:21;;;;;;;16.30;9.20;;;-3.00;99.90;;;;;;5133506;27;20162;-75
2022/01/14 05:56:48;;;;;;;19.70;8.50;;;-2.90;99.90;;;;;;5133190;27;20158;-74
2022/01/14 05:59:14;;;;;;;14.07;8.50;;;-2.90;99.90;;;;;;5143756;27;20222;-74
2022/01/14 06:01:41;;;;;;;21.27;10.93;;;-2.80;99.90;;;;;;5112522;28;20214;-74
2022/01/14 06:04:07;;;;;;;20.80;8.65;;;-2.90;99.90;;;;;;5130773;28;20184;-75
2022/01/14 06:06:34;;;;;;;21.63;10.05;;;-2.90;99.90;;;;;;5112674;28;20241;-75
2022/01/14 06:09:02;;;;;;;18.02;8.32;;;-3.00;99.90;;;;;;5130635;28;20227;-76
2022/01/14 06:11:28;;;;;;;15.80;8.05;;;-3.00;99.90;;;;;;5112100;28;20216;-75
2022/01/14 06:13:55;;;;;;;22.90;9.52;;;-3.00;99.90;;;;;;5130737;28;20158;-75
2022/01/14 06:16:21;;;;;;;14.65;8.50;;;-3.00;99.90;;;;;;5130494;28;20222;-75
2022/01/14 06:18:47;;;;;;;15.82;9.20;;;-3.10;99.90;;;;;;5110610;28;20187;-75
2022/01/14 06:21:13;;;;;;;20.13;9.35;;;-3.00;99.90;;;;;;5115592;28;20229;-75
2022/01/14 06:23:40;;;;;;;15.05;8.00;;;-3.00;99.90;;;;;;5091660;28;20245;-75
2022/01/14 06:26:10;;;;;;;19.27;8.85;;;-3.00;99.90;;;;;;5114954;27;20186;-75
2022/01/14 06:28:43;;;;;;;14.25;7.97;;;-2.90;99.90;;;;;;5132398;27;20245;-74
2022/01/14 06:31:13;;;;;;;14.40;8.00;;;-2.90;99.90;;;;;;5132610;27;20223;-73
2022/01/14 06:33:39;;;;;;;12.93;7.18;;;-2.90;99.90;;;;;;5102343;28;20696;-73
2022/01/14 06:36:05;;;;;;;19.73;7.80;;;-2.90;99.90;;;;;;5108930;28;20185;-73
2022/01/14 06:38:30;;;;;;;25.80;8.82;;;-2.80;99.90;;;;;;5091526;28;20175;-73
2022/01/14 06:40:57;;;;;;;13.15;7.40;;;-2.90;99.90;;;;;;5110441;28;20202;-73
2022/01/14 06:43:23;;;;;;;15.88;8.23;;;-2.90;99.90;;;;;;5127035;28;20171;-73
2022/01/14 06:45:48;;;;;;;14.63;7.30;;;-2.90;99.90;;;;;;5129477;28;20159;-73
2022/01/14 06:48:14;;;;;;;17.63;7.55;;;-3.00;99.90;;;;;;5126817;28;20222;-72
2022/01/14 06:50:40;;;;;;;15.00;8.23;;;-3.00;99.90;;;;;;5129122;28;20223;-73
2022/01/14 06:53:06;;;;;;;17.23;7.63;;;-2.90;99.90;;;;;;5129357;28;20212;-73
2022/01/14 06:55:32;;;;;;;11.30;6.32;;;-3.00;99.90;;;;;;5110372;28;20194;-73
2022/01/14 06:57:58;;;;;;;14.48;7.13;;;-2.90;99.90;;;;;;5111682;28;20167;-73
2022/01/14 07:00:25;;;;;;;11.65;6.47;;;-2.90;99.90;;;;;;5109099;28;20211;-73
2022/01/14 07:02:51;;;;;;;16.08;7.43;;;-2.90;99.90;;;;;;5109636;28;20217;-73
2022/01/14 07:05:17;;;;;;;10.77;6.32;;;-2.80;99.90;;;;;;5115420;28;20185;-73
2022/01/14 07:07:43;;;;;;;14.90;7.22;;;-2.60;99.90;;;;;;5111446;28;20166;-74
2022/01/14 07:10:10;;;;;;;28.55;6.38;;;-2.60;99.90;;;;;;5111263;28;20239;-74
2022/01/14 07:12:40;;;;;;;16.75;7.78;;;-2.50;99.90;;;;;;5129565;28;20286;-74
2022/01/14 07:15:11;;;;;;;17.88;8.32;;;-2.50;99.90;;;;;;5125124;28;20163;-73
2022/01/14 07:17:38;;;;;;;13.27;7.70;;;-2.50;99.90;;;;;;5093130;28;20193;-74
2022/01/14 07:20:10;;;;;;;12.05;6.00;;;-2.50;99.90;;;;;;5110214;28;20254;-74
2022/01/14 07:22:37;;;;;;;10.15;5.28;;;-2.40;99.90;;;;;;5109290;28;20267;-74
2022/01/14 07:25:04;;;;;;;12.20;5.35;;;-2.30;99.90;;;;;;5109936;28;20247;-74
2022/01/14 07:27:30;;;;;;;14.30;6.25;;;-1.80;99.90;;;;;;5110069;28;20213;-73
2022/01/14 07:29:56;;;;;;;11.75;6.28;;;-1.60;99.90;;;;;;5119062;28;20182;-73
2022/01/14 07:32:22;;;;;;;8.25;5.25;;;-1.70;99.90;;;;;;5125467;28;20250;-73
2022/01/14 07:34:49;;;;;;;8.55;4.63;;;-1.80;99.90;;;;;;5137854;28;20178;-73
2022/01/14 07:37:16;;;;;;;14.10;6.60;;;-1.80;99.90;;;;;;5115361;28;20198;-73
2022/01/14 07:39:43;;;;;;;11.30;5.68;;;-1.60;99.90;;;;;;5130280;28;20178;-73
2022/01/14 07:42:08;;;;;;;10.70;6.15;;;-1.40;99.90;;;;;;5115123;28;20172;-73
2022/01/14 07:44:34;;;;;;;5.72;4.38;;;-1.10;99.90;;;;;;5114071;28;20230;-73
2022/01/14 07:47:01;;;;;;;10.35;5.93;;;-1.00;99.90;;;;;;5136730;28;20226;-73
2022/01/14 07:49:27;;;;;;;10.57;6.38;;;-0.90;99.90;;;;;;5090425;28;20198;-73
2022/01/14 07:51:53;;;;;;;14.52;6.63;;;-0.70;99.90;;;;;;5091607;28;20182;-73
2022/01/14 07:54:19;;;;;;;12.60;6.65;;;-0.60;99.90;;;;;;5094417;28;20218;-73
2022/01/14 07:56:48;;;;;;;9.48;5.93;;;-0.60;99.90;;;;;;5129289;28;20163;-74
2022/01/14 07:59:16;;;;;;;10.00;5.05;;;-0.50;99.90;;;;;;5092682;28;20215;-74
2022/01/14 08:01:43;;;;;;;7.18;5.10;;;-0.40;99.90;;;;;;5099463;28;20182;-73
2022/01/14 08:04:10;;;;;;;9.60;6.30;;;-0.20;99.90;;;;;;5135136;28;20187;-74
2022/01/14 08:06:44;;;;;;;13.35;7.32;;;0.10;99.90;;;;;;5100528;28;20187;-72
2022/01/14 08:09:10;;;;;;;11.60;8.48;;;0.40;99.90;;;;;;5149489;28;20212;-74
2022/01/14 08:11:36;;;;;;;16.08;7.95;;;0.60;99.90;;;;;;5149451;28;20184;-74
2022/01/14 08:14:02;;;;;;;16.40;9.93;;;1.10;99.90;;;;;;5149623;28;20217;-73
2022/01/14 08:16:28;;;;;;;17.10;8.65;;;2.60;99.90;;;;;;5113797;28;20182;-74
2022/01/14 08:18:54;;;;;;;16.58;8.27;;;3.10;99.90;;;;;;5128796;28;20166;-72
2022/01/14 08:21:20;;;;;;;14.73;7.72;;;3.10;99.90;;;;;;5128986;28;20163;-73
2022/01/14 08:23:46;;;;;;;11.10;6.60;;;3.60;99.90;;;;;;5102748;28;20175;-74
2022/01/14 08:26:12;;;;;;;10.95;5.18;;;5.20;99.90;;;;;;5098433;28;20179;-75
2022/01/14 08:28:38;;;;;;;8.50;5.68;;;8.20;99.90;;;;;;5108402;28;20164;-75
2022/01/14 08:31:04;;;;;;;9.88;5.95;;;10.10;99.90;;;;;;5109449;28;20171;-75
2022/01/14 08:33:30;;;;;;;10.30;5.97;;;11.50;99.90;;;;;;5108933;28;20163;-75
2022/01/14 08:35:56;;;;;;;9.82;5.43;;;11.20;99.90;;;;;;5112147;28;20191;-76
2022/01/14 08:38:23;;;;;;;16.60;5.78;;;10.30;99.90;;;;;;5130704;28;20166;-76
2022/01/14 08:40:49;;;;;;;9.18;5.18;;;11.50;99.90;;;;;;5114308;28;20166;-75
2022/01/14 08:43:16;;;;;;;9.02;4.53;;;11.10;99.90;;;;;;5114028;28;20163;-76
2022/01/14 08:45:42;;;;;;;8.88;4.22;;;12.00;99.90;;;;;;5132120;28;20182;-76
2022/01/14 08:48:08;;;;;;;8.68;5.00;;;10.70;99.90;;;;;;5117666;28;20167;-74
2022/01/14 08:50:37;;;;;;;16.10;4.40;;;12.50;99.90;;;;;;5093237;28;20191;-73
2022/01/14 08:53:10;;;;;;;7.60;4.22;;;12.50;99.90;;;;;;5111526;28;20156;-73
2022/01/14 08:55:37;;;;;;;6.93;3.85;;;13.20;99.90;;;;;;5094206;28;20198;-74
2022/01/14 08:58:03;;;;;;;15.48;4.85;;;14.30;99.90;;;;;;5117080;28;20155;-75
2022/01/14 09:00:31;;;;;;;8.38;5.85;;;14.40;99.90;;;;;;5121282;28;20222;-75
2022/01/14 09:02:57;;;;;;;15.95;5.15;;;14.30;99.90;;;;;;5105190;28;20193;-74
2022/01/14 09:05:24;;;;;;;11.82;5.60;;;14.00;99.90;;;;;;5100876;28;20194;-74
2022/01/14 09:07:51;;;;;;;10.70;6.07;;;14.00;99.90;;;;;;5091433;28;20636;-74
2022/01/14 09:10:18;;;;;;;13.68;5.55;;;13.90;99.90;;;;;;5126460;28;20190;-74
2022/01/14 09:12:45;;;;;;;12.25;5.88;;;14.50;99.90;;;;;;5131281;28;20189;-74
2022/01/14 09:15:11;;;;;;;9.90;6.13;;;15.00;99.90;;;;;;5131764;28;20174;-74
2022/01/14 09:17:38;;;;;;;9.27;5.85;;;15.00;99.90;;;;;;5131992;28;20198;-75
2022/01/14 09:20:06;;;;;;;9.32;4.78;;;14.20;99.90;;;;;;5113258;28;20165;-73
2022/01/14 09:22:34;;;;;;;8.38;4.07;;;13.80;99.90;;;;;;5131455;28;20190;-74
2022/01/14 09:25:00;;;;;;;9.23;4.03;;;14.40;99.90;;;;;;5131864;28;20159;-74
2022/01/14 09:27:30;;;;;;;10.15;4.82;;;14.40;99.90;;;;;;5131687;28;20235;-74
2022/01/14 09:29:57;;;;;;;6.03;4.28;;;13.80;99.90;;;;;;5113185;28;20194;-74
2022/01/14 09:32:23;;;;;;;9.23;4.20;;;14.50;99.90;;;;;;5131588;28;20190;-74
2022/01/14 09:34:49;;;;;;;9.98;5.10;;;14.80;99.90;;;;;;5131384;28;20177;-74
2022/01/14 09:37:15;;;;;;;10.93;4.72;;;14.40;99.90;;;;;;5113095;28;20170;-74
2022/01/14 09:39:43;;;;;;;9.60;4.53;;;14.30;99.90;;;;;;5124148;28;20241;-74
2022/01/14 09:42:18;;;;;;;10.18;4.43;;;14.90;99.90;;;;;;5094750;28;20195;-74
2022/01/14 09:44:44;;;;;;;11.27;5.85;;;14.50;99.90;;;;;;5131338;28;20216;-74
2022/01/14 09:47:17;;;;;;;14.48;7.18;;;13.70;99.90;;;;;;5123683;28;20171;-74
2022/01/14 09:49:44;;;;;;;15.55;7.13;;;13.50;99.90;;;;;;5110571;28;20247;-73
2022/01/14 09:52:15;;;;;;;11.48;7.35;;;13.10;99.90;;;;;;5091944;28;20541;-74
2022/01/14 09:54:42;;;;;;;10.32;7.97;;;13.00;99.90;;;;;;5110283;28;20187;-75
2022/01/14 09:57:11;;;;;;;15.73;7.03;;;13.10;99.90;;;;;;5109470;28;20162;-75
2022/01/14 09:59:37;;;;;;;10.93;6.75;;;12.40;99.90;;;;;;5130784;28;20423;-75
2022/01/14 10:02:03;;;;;;;17.38;7.95;;;11.80;99.90;;;;;;5130793;28;20159;-75
2022/01/14 10:04:29;;;;;;;11.75;6.63;;;12.70;99.90;;;;;;5112832;28;20171;-74
2022/01/14 10:06:57;;;;;;;11.07;6.57;;;12.80;99.90;;;;;;5112500;28;20179;-75
2022/01/14 10:09:35;;;;;;;12.13;6.68;;;13.20;99.90;;;;;;5112358;28;20209;-75
2022/01/14 10:12:22;;;;;;;14.38;6.45;;;13.90;99.90;;;;;;5111913;28;20159;-75
2022/01/14 10:14:54;;;;;;;14.07;5.97;;;14.10;99.90;;;;;;5110381;28;20172;-75
2022/01/14 10:17:20;;;;;;;10.73;4.85;;;14.80;99.90;;;;;;5092187;28;20163;-75
2022/01/14 10:19:50;;;;;;;15.95;5.15;;;14.10;99.90;;;;;;5110450;28;20182;-75
2022/01/14 10:22:28;;;;;;;9.80;5.60;;;14.40;99.90;;;;;;5110308;28;20242;-75
2022/01/14 10:25:06;;;;;;;10.38;5.70;;;14.80;99.90;;;;;;5109790;28;20249;-73
2022/01/14 10:27:50;;;;;;;15.98;5.60;;;15.40;99.90;;;;;;5091836;28;20164;-73
2022/01/14 10:30:28;;;;;;;10.48;6.25;;;15.60;99.90;;;;;;5091593;28;20199;-73
2022/01/14 10:32:56;;;;;;;11.65;5.35;;;15.50;99.90;;;;;;5110074;28;20195;-72
2022/01/14 10:35:25;;;;;;;10.13;5.28;;;16.00;99.90;;;;;;5091895;28;20606;-72
2022/01/14 10:37:51;;;;;;;7.95;4.80;;;15.60;99.90;;;;;;5110035;28;20152;-74
2022/01/14 10:40:26;;;;;;;11.35;5.75;;;15.70;99.90;;;;;;5104913;28;20246;-73
2022/01/14 10:43:00;;;;;;;10.70;5.35;;;16.20;99.90;;;;;;5113819;28;20285;-73
2022/01/14 10:45:28;;;;;;;6.80;4.38;;;16.70;99.20;;;;;;5130406;28;20177;-72
2022/01/14 10:48:02;;;;;;;10.50;4.53;;;16.40;99.30;;;;;;5115271;28;20179;-73
2022/01/14 10:50:40;;;;;;;5.63;3.75;;;15.60;99.90;;;;;;5109552;28;20190;-73
2022/01/14 10:53:21;;;;;;;13.93;6.32;;;15.50;99.90;;;;;;5109690;28;20198;-72
2022/01/14 10:55:59;;;;;;;15.02;5.68;;;15.80;99.90;;;;;;5109921;28;20151;-73
2022/01/14 10:58:27;;;;;;;20.42;6.70;;;16.40;99.70;;;;;;5108386;28;20178;-73
2022/01/14 11:01:11;;;;;;;16.00;6.28;;;16.80;99.00;;;;;;5091056;28;20179;-72
2022/01/14 11:03:45;;;;;;;10.75;6.10;;;16.60;98.70;;;;;;5109575;28;20194;-73
2022/01/14 11:06:34;;;;;;;9.48;5.95;;;16.60;98.90;;;;;;5109510;28;20159;-73
2022/01/14 11:09:10;;;;;;;15.90;6.70;;;17.00;99.10;;;;;;5090796;28;20195;-73
2022/01/14 11:11:42;;;;;;;14.57;5.97;;;17.10;98.60;;;;;;5090875;28;20171;-73
2022/01/14 11:14:08;;;;;;;15.15;6.53;;;16.10;99.30;;;;;;5109212;28;20179;-74
2022/01/14 11:16:36;;;;;;;15.38;7.25;;;16.00;99.90;;;;;;5109469;28;20183;-74
2022/01/14 11:19:04;;;;;;;13.88;7.45;;;16.10;99.70;;;;;;5145191;27;20188;-73
2022/01/14 11:24:25;;;;;;;12.57;7.40;;;15.60;99.90;;;;;;5150307;27;20699;-73
2022/01/14 11:26:59;;;;;;;13.55;7.68;;;16.00;99.90;;;;;;5150518;27;20161;-73
2022/01/14 11:29:33;;;;;;;14.93;7.45;;;16.50;99.80;;;;;;5149894;27;20182;-74
2022/01/14 11:32:03;;;;;;;16.13;8.10;;;16.70;99.10;;;;;;5131584;28;20189;-74
2022/01/14 11:34:37;;;;;;;13.05;7.93;;;16.40;99.20;;;;;;5150269;28;20173;-74
2022/01/14 11:37:06;;;;;;;11.43;6.88;;;16.10;99.90;;;;;;5150190;28;20169;-75
2022/01/14 11:39:36;;;;;;;18.67;7.68;;;16.40;99.90;;;;;;5133124;28;20170;-74
2022/01/14 11:42:04;;;;;;;9.93;6.45;;;17.10;99.40;;;;;;5111008;28;20192;-75
2022/01/14 11:47:41;;;;;;;16.15;7.32;;;18.10;98.50;;;;;;5120268;28;20171;-74
2022/01/14 11:50:29;;;;;;;15.02;7.65;;;18.20;97.40;;;;;;5098736;28;20207;-74
2022/01/14 11:52:59;;;;;;;13.50;7.15;;;17.70;97.70;;;;;;5089936;28;20194;-74
2022/01/14 11:55:29;;;;;;;20.83;7.78;;;17.20;98.60;;;;;;5090780;28;20198;-74
2022/01/14 11:57:59;;;;;;;16.33;7.30;;;17.40;99.00;;;;;;5108813;28;20164;-74
2022/01/14 12:00:29;;;;;;;17.10;7.18;;;17.90;98.30;;;;;;5087158;28;20252;-74
2022/01/14 12:03:25;;;;;;;22.15;7.50;;;18.10;97.90;;;;;;5108675;28;20217;-74
2022/01/14 12:06:05;;;;;;;15.10;7.32;;;17.80;98.00;;;;;;5108672;28;20171;-74
2022/01/14 12:08:36;;;;;;;15.00;7.38;;;17.90;98.10;;;;;;5090837;28;20174;-73
2022/01/14 12:11:05;;;;;;;14.40;7.15;;;17.60;98.40;;;;;;5112769;28;20167;-74
2022/01/14 12:13:38;;;;;;;13.45;7.57;;;17.70;97.50;;;;;;5112594;28;20209;-75
2022/01/14 12:16:25;;;;;;;14.68;7.35;;;17.90;98.20;;;;;;5112582;28;20151;-74
2022/01/14 12:19:02;;;;;;;13.88;7.22;;;18.10;98.30;;;;;;5112435;28;20254;-74
2022/01/14 12:21:51;;;;;;;11.85;6.88;;;17.90;97.90;;;;;;5112524;28;20151;-73
2022/01/14 12:24:27;;;;;;;14.10;8.20;;;17.80;97.50;;;;;;5094388;28;20205;-74
2022/01/14 12:27:08;;;;;;;15.63;8.25;;;17.60;98.90;;;;;;5094146;28;20167;-74
2022/01/14 12:29:43;;;;;;;14.50;7.68;;;17.60;97.70;;;;;;5112457;28;20524;-74
2022/01/14 12:32:11;;;;;;;16.40;7.63;;;17.60;97.80;;;;;;5112387;28;20183;-74
2022/01/14 12:34:44;;;;;;;13.50;7.47;;;17.40;98.50;;;;;;5093905;28;20168;-75
2022/01/14 12:37:21;;;;;;;17.85;8.10;;;17.60;98.60;;;;;;5112368;28;20152;-74
2022/01/14 12:39:49;;;;;;;11.25;7.15;;;17.30;98.10;;;;;;5111814;28;20155;-74
2022/01/14 12:42:17;;;;;;;12.68;7.20;;;16.20;99.20;;;;;;5093939;28;20194;-74
2022/01/14 12:44:45;;;;;;;15.63;8.48;;;14.90;99.90;;;;;;5125067;28;20185;-75
2022/01/14 12:47:18;;;;;;;14.93;7.47;;;14.30;99.90;;;;;;5105085;28;20531;-74
2022/01/14 12:49:44;;;;;;;14.82;6.82;;;13.70;99.90;;;;;;5111930;28;20214;-74
2022/01/14 12:52:19;;;;;;;18.42;8.73;;;13.10;99.90;;;;;;5098393;27;20199;-74
2022/01/14 12:54:47;;;;;;;19.27;9.13;;;12.70;99.90;;;;;;5152933;27;20173;-75
2022/01/14 12:57:17;;;;;;;13.65;7.35;;;12.30;99.90;;;;;;5134556;27;20257;-74
2022/01/14 12:59:46;;;;;;;18.15;7.00;;;12.30;99.90;;;;;;5134098;27;20296;-76
2022/01/14 13:02:23;;;;;;;15.77;7.45;;;12.20;99.90;;;;;;5134077;27;20213;-74
2022/01/14 13:05:14;;;;;;;14.57;7.50;;;12.10;99.90;;;;;;5152617;27;20162;-74
2022/01/14 13:07:40;;;;;;;12.57;7.82;;;12.10;99.90;;;;;;5152897;27;20538;-75
2022/01/14 13:10:08;;;;;;;11.02;6.95;;;12.00;99.90;;;;;;5133661;27;20201;-74
2022/01/14 13:12:45;;;;;;;12.80;6.93;;;12.00;99.90;;;;;;5152586;27;20182;-75
2022/01/14 13:15:19;;;;;;;17.73;6.95;;;12.00;99.90;;;;;;5152128;27;20153;-74
2022/01/14 13:17:54;;;;;;;14.38;6.85;;;12.00;99.90;;;;;;5133641;27;20173;-73
2022/01/14 13:20:21;;;;;;;13.18;6.65;;;11.90;99.90;;;;;;5150821;27;20164;-74
2022/01/14 13:22:49;;;;;;;13.32;7.15;;;12.00;99.90;;;;;;5151698;27;20186;-74